sensor_id;sensor_type;location;lat;lon;timestamp;P1;durP1;ratioP1;P2;durP2;ratioP2
25111;SDS011;13092;51.996;4.458;2024-01-25T00:02:25;78.30;;;53.92;;
25111;SDS011;13092;51.996;4.458;2024-01-25T00:05:02;63.63;;;51.72;;
25111;SDS011;13092;51.996;4.458;2024-01-25T00:11:14;72.55;;;51.10;;
25111;SDS011;13092;51.996;4.458;2024-01-25T00:13:53;69.15;;;52.63;;
25111;SDS011;13092;51.996;4.458;2024-01-25T00:20:11;71.32;;;54.13;;
25111;SDS011;13092;51.996;4.458;2024-01-25T00:23:38;72.78;;;51.20;;
25111;SDS011;13092;51.996;4.458;2024-01-25T00:26:27;71.45;;;51.95;;
25111;SDS011;13092;51.996;4.458;2024-01-25T00:29:11;68.82;;;50.72;;
25111;SDS011;13092;51.996;4.458;2024-01-25T00:42:31;65.70;;;53.92;;
25111;SDS011;13092;51.996;4.458;2024-01-25T00:45:07;70.85;;;52.42;;
25111;SDS011;13092;51.996;4.458;2024-01-25T00:47:38;75.68;;;52.03;;
25111;SDS011;13092;51.996;4.458;2024-01-25T00:50:17;69.05;;;52.78;;
25111;SDS011;13092;51.996;4.458;2024-01-25T00:56:28;67.13;;;54.22;;
25111;SDS011;13092;51.996;4.458;2024-01-25T00:59:19;68.40;;;54.40;;
25111;SDS011;13092;51.996;4.458;2024-01-25T01:01:51;72.20;;;53.60;;
25111;SDS011;13092;51.996;4.458;2024-01-25T01:09:09;73.32;;;51.45;;
25111;SDS011;13092;51.996;4.458;2024-01-25T01:11:48;73.07;;;54.53;;
25111;SDS011;13092;51.996;4.458;2024-01-25T01:14:23;69.38;;;54.85;;
25111;SDS011;13092;51.996;4.458;2024-01-25T01:24:25;75.78;;;55.50;;
25111;SDS011;13092;51.996;4.458;2024-01-25T01:30:49;69.80;;;51.40;;
25111;SDS011;13092;51.996;4.458;2024-01-25T01:40:16;70.80;;;53.40;;
25111;SDS011;13092;51.996;4.458;2024-01-25T01:49:22;74.90;;;54.63;;
25111;SDS011;13092;51.996;4.458;2024-01-25T01:52:13;73.07;;;55.08;;
25111;SDS011;13092;51.996;4.458;2024-01-25T01:54:45;70.13;;;52.63;;
25111;SDS011;13092;51.996;4.458;2024-01-25T01:57:28;73.72;;;55.10;;
25111;SDS011;13092;51.996;4.458;2024-01-25T02:00:11;83.80;;;57.72;;
25111;SDS011;13092;51.996;4.458;2024-01-25T02:03:22;73.32;;;57.08;;
25111;SDS011;13092;51.996;4.458;2024-01-25T02:13:18;71.85;;;53.92;;
25111;SDS011;13092;51.996;4.458;2024-01-25T02:15:58;68.32;;;56.15;;
25111;SDS011;13092;51.996;4.458;2024-01-25T02:18:38;75.55;;;55.63;;
25111;SDS011;13092;51.996;4.458;2024-01-25T02:21:09;69.28;;;54.47;;
25111;SDS011;13092;51.996;4.458;2024-01-25T02:23:41;76.57;;;55.60;;
25111;SDS011;13092;51.996;4.458;2024-01-25T02:26:16;73.63;;;57.13;;
25111;SDS011;13092;51.996;4.458;2024-01-25T02:32:12;66.32;;;54.83;;
25111;SDS011;13092;51.996;4.458;2024-01-25T02:38:35;81.30;;;58.72;;
25111;SDS011;13092;51.996;4.458;2024-01-25T02:44:47;78.10;;;58.28;;
25111;SDS011;13092;51.996;4.458;2024-01-25T03:08:21;78.28;;;58.50;;
25111;SDS011;13092;51.996;4.458;2024-01-25T03:11:03;73.77;;;58.63;;
25111;SDS011;13092;51.996;4.458;2024-01-25T03:17:21;71.00;;;56.80;;
25111;SDS011;13092;51.996;4.458;2024-01-25T03:25:49;71.07;;;55.03;;
25111;SDS011;13092;51.996;4.458;2024-01-25T03:28:20;78.60;;;57.63;;
25111;SDS011;13092;51.996;4.458;2024-01-25T03:33:46;79.23;;;59.40;;
25111;SDS011;13092;51.996;4.458;2024-01-25T03:36:22;78.87;;;58.97;;
25111;SDS011;13092;51.996;4.458;2024-01-25T03:39:10;77.22;;;57.30;;
25111;SDS011;13092;51.996;4.458;2024-01-25T03:41:46;74.90;;;57.83;;
25111;SDS011;13092;51.996;4.458;2024-01-25T03:54:44;72.10;;;58.43;;
25111;SDS011;13092;51.996;4.458;2024-01-25T04:00:26;76.20;;;58.77;;
25111;SDS011;13092;51.996;4.458;2024-01-25T04:02:54;75.83;;;57.77;;
25111;SDS011;13092;51.996;4.458;2024-01-25T04:05:22;76.10;;;58.93;;
25111;SDS011;13092;51.996;4.458;2024-01-25T04:07:52;71.70;;;57.37;;
25111;SDS011;13092;51.996;4.458;2024-01-25T04:10:21;81.50;;;59.97;;
25111;SDS011;13092;51.996;4.458;2024-01-25T04:12:49;78.90;;;57.47;;
25111;SDS011;13092;51.996;4.458;2024-01-25T04:15:21;88.50;;;61.03;;
25111;SDS011;13092;51.996;4.458;2024-01-25T04:17:51;82.60;;;59.30;;
25111;SDS011;13092;51.996;4.458;2024-01-25T04:20:19;78.93;;;59.20;;
25111;SDS011;13092;51.996;4.458;2024-01-25T04:22:48;77.00;;;59.80;;
25111;SDS011;13092;51.996;4.458;2024-01-25T04:25:17;79.70;;;60.43;;
25111;SDS011;13092;51.996;4.458;2024-01-25T04:27:46;74.80;;;60.90;;
25111;SDS011;13092;51.996;4.458;2024-01-25T04:30:14;73.77;;;58.73;;
25111;SDS011;13092;51.996;4.458;2024-01-25T04:32:43;78.37;;;58.87;;
25111;SDS011;13092;51.996;4.458;2024-01-25T04:35:13;74.03;;;60.57;;
25111;SDS011;13092;51.996;4.458;2024-01-25T04:37:42;76.33;;;59.03;;
25111;SDS011;13092;51.996;4.458;2024-01-25T04:40:11;79.40;;;61.23;;
25111;SDS011;13092;51.996;4.458;2024-01-25T04:42:40;80.37;;;61.43;;
25111;SDS011;13092;51.996;4.458;2024-01-25T04:45:09;73.07;;;61.17;;
25111;SDS011;13092;51.996;4.458;2024-01-25T04:47:38;75.90;;;60.50;;
25111;SDS011;13092;51.996;4.458;2024-01-25T04:50:07;72.23;;;60.67;;
25111;SDS011;13092;51.996;4.458;2024-01-25T04:52:38;75.07;;;59.80;;
25111;SDS011;13092;51.996;4.458;2024-01-25T04:55:06;83.00;;;59.33;;
25111;SDS011;13092;51.996;4.458;2024-01-25T04:57:35;76.40;;;58.70;;
25111;SDS011;13092;51.996;4.458;2024-01-25T05:00:04;78.80;;;60.80;;
25111;SDS011;13092;51.996;4.458;2024-01-25T05:02:33;78.03;;;57.87;;
25111;SDS011;13092;51.996;4.458;2024-01-25T05:05:01;75.77;;;55.87;;
25111;SDS011;13092;51.996;4.458;2024-01-25T05:07:30;73.87;;;52.97;;
25111;SDS011;13092;51.996;4.458;2024-01-25T05:10:00;70.17;;;54.97;;
25111;SDS011;13092;51.996;4.458;2024-01-25T05:12:28;71.50;;;56.50;;
25111;SDS011;13092;51.996;4.458;2024-01-25T05:14:57;74.37;;;53.90;;
25111;SDS011;13092;51.996;4.458;2024-01-25T05:17:26;70.50;;;53.50;;
25111;SDS011;13092;51.996;4.458;2024-01-25T05:19:54;73.33;;;55.03;;
25111;SDS011;13092;51.996;4.458;2024-01-25T05:22:23;83.23;;;56.33;;
25111;SDS011;13092;51.996;4.458;2024-01-25T05:24:52;67.57;;;53.60;;
25111;SDS011;13092;51.996;4.458;2024-01-25T05:27:22;67.30;;;54.67;;
25111;SDS011;13092;51.996;4.458;2024-01-25T05:29:50;72.90;;;54.90;;
25111;SDS011;13092;51.996;4.458;2024-01-25T05:32:19;75.70;;;56.73;;
25111;SDS011;13092;51.996;4.458;2024-01-25T05:34:47;66.57;;;51.77;;
25111;SDS011;13092;51.996;4.458;2024-01-25T05:37:16;69.80;;;51.90;;
25111;SDS011;13092;51.996;4.458;2024-01-25T05:39:44;59.13;;;51.87;;
25111;SDS011;13092;51.996;4.458;2024-01-25T05:42:13;63.07;;;51.00;;
25111;SDS011;13092;51.996;4.458;2024-01-25T05:44:43;71.93;;;52.10;;
25111;SDS011;13092;51.996;4.458;2024-01-25T05:47:11;77.37;;;52.03;;
25111;SDS011;13092;51.996;4.458;2024-01-25T05:49:40;80.20;;;53.00;;
25111;SDS011;13092;51.996;4.458;2024-01-25T05:52:09;76.27;;;52.07;;
25111;SDS011;13092;51.996;4.458;2024-01-25T05:54:37;80.23;;;52.03;;
25111;SDS011;13092;51.996;4.458;2024-01-25T05:57:06;71.23;;;52.10;;
25111;SDS011;13092;51.996;4.458;2024-01-25T05:59:34;72.80;;;53.97;;
25111;SDS011;13092;51.996;4.458;2024-01-25T06:02:04;60.57;;;54.10;;
25111;SDS011;13092;51.996;4.458;2024-01-25T06:04:32;69.13;;;53.00;;
25111;SDS011;13092;51.996;4.458;2024-01-25T06:07:01;75.13;;;53.17;;
25111;SDS011;13092;51.996;4.458;2024-01-25T06:09:30;71.57;;;50.90;;
25111;SDS011;13092;51.996;4.458;2024-01-25T06:11:59;73.93;;;53.03;;
25111;SDS011;13092;51.996;4.458;2024-01-25T06:14:28;74.30;;;52.23;;
25111;SDS011;13092;51.996;4.458;2024-01-25T06:16:56;73.23;;;52.30;;
25111;SDS011;13092;51.996;4.458;2024-01-25T06:19:26;78.47;;;54.27;;
25111;SDS011;13092;51.996;4.458;2024-01-25T06:21:55;67.37;;;53.00;;
25111;SDS011;13092;51.996;4.458;2024-01-25T06:24:24;71.53;;;53.00;;
25111;SDS011;13092;51.996;4.458;2024-01-25T06:26:52;76.20;;;52.77;;
25111;SDS011;13092;51.996;4.458;2024-01-25T06:29:21;78.17;;;52.70;;
25111;SDS011;13092;51.996;4.458;2024-01-25T06:31:50;78.70;;;51.80;;
25111;SDS011;13092;51.996;4.458;2024-01-25T06:34:19;75.63;;;52.83;;
25111;SDS011;13092;51.996;4.458;2024-01-25T06:36:49;79.87;;;55.23;;
25111;SDS011;13092;51.996;4.458;2024-01-25T06:39:17;68.33;;;48.20;;
25111;SDS011;13092;51.996;4.458;2024-01-25T06:41:46;70.67;;;45.90;;
25111;SDS011;13092;51.996;4.458;2024-01-25T06:44:14;68.80;;;46.07;;
25111;SDS011;13092;51.996;4.458;2024-01-25T06:46:43;70.63;;;44.93;;
25111;SDS011;13092;51.996;4.458;2024-01-25T06:49:14;73.50;;;47.17;;
25111;SDS011;13092;51.996;4.458;2024-01-25T06:51:42;70.53;;;47.00;;
25111;SDS011;13092;51.996;4.458;2024-01-25T06:54:15;66.40;;;48.70;;
25111;SDS011;13092;51.996;4.458;2024-01-25T06:56:43;80.80;;;48.10;;
25111;SDS011;13092;51.996;4.458;2024-01-25T06:59:11;73.13;;;48.57;;
25111;SDS011;13092;51.996;4.458;2024-01-25T07:01:40;66.47;;;48.43;;
25111;SDS011;13092;51.996;4.458;2024-01-25T07:04:09;76.73;;;49.50;;
25111;SDS011;13092;51.996;4.458;2024-01-25T07:06:39;71.67;;;47.87;;
25111;SDS011;13092;51.996;4.458;2024-01-25T07:09:07;72.27;;;50.87;;
25111;SDS011;13092;51.996;4.458;2024-01-25T07:11:38;74.60;;;48.03;;
25111;SDS011;13092;51.996;4.458;2024-01-25T07:14:06;79.73;;;50.40;;
25111;SDS011;13092;51.996;4.458;2024-01-25T07:16:34;72.70;;;49.43;;
25111;SDS011;13092;51.996;4.458;2024-01-25T07:19:03;84.93;;;49.93;;
25111;SDS011;13092;51.996;4.458;2024-01-25T07:21:32;73.50;;;47.87;;
25111;SDS011;13092;51.996;4.458;2024-01-25T07:24:02;75.40;;;46.97;;
25111;SDS011;13092;51.996;4.458;2024-01-25T07:26:34;76.70;;;46.20;;
25111;SDS011;13092;51.996;4.458;2024-01-25T07:29:04;77.53;;;46.70;;
25111;SDS011;13092;51.996;4.458;2024-01-25T07:31:33;65.53;;;44.70;;
25111;SDS011;13092;51.996;4.458;2024-01-25T07:34:01;74.37;;;44.47;;
25111;SDS011;13092;51.996;4.458;2024-01-25T07:36:30;74.00;;;46.83;;
25111;SDS011;13092;51.996;4.458;2024-01-25T07:39:02;72.10;;;46.77;;
25111;SDS011;13092;51.996;4.458;2024-01-25T07:41:31;66.07;;;45.60;;
25111;SDS011;13092;51.996;4.458;2024-01-25T07:44:01;69.97;;;47.03;;
25111;SDS011;13092;51.996;4.458;2024-01-25T07:46:31;74.70;;;46.77;;
25111;SDS011;13092;51.996;4.458;2024-01-25T07:48:59;71.60;;;46.87;;
25111;SDS011;13092;51.996;4.458;2024-01-25T07:51:28;80.03;;;47.40;;
25111;SDS011;13092;51.996;4.458;2024-01-25T07:53:57;67.67;;;46.87;;
25111;SDS011;13092;51.996;4.458;2024-01-25T07:56:25;73.97;;;47.43;;
25111;SDS011;13092;51.996;4.458;2024-01-25T07:58:54;67.40;;;46.90;;
25111;SDS011;13092;51.996;4.458;2024-01-25T08:01:22;72.47;;;47.23;;
25111;SDS011;13092;51.996;4.458;2024-01-25T08:03:51;69.23;;;47.60;;
25111;SDS011;13092;51.996;4.458;2024-01-25T08:06:20;72.03;;;46.93;;
25111;SDS011;13092;51.996;4.458;2024-01-25T08:08:48;65.10;;;46.50;;
25111;SDS011;13092;51.996;4.458;2024-01-25T08:11:17;75.77;;;47.10;;
25111;SDS011;13092;51.996;4.458;2024-01-25T08:13:46;71.53;;;45.60;;
25111;SDS011;13092;51.996;4.458;2024-01-25T08:16:16;71.10;;;45.17;;
25111;SDS011;13092;51.996;4.458;2024-01-25T08:18:46;78.07;;;47.27;;
25111;SDS011;13092;51.996;4.458;2024-01-25T08:21:18;79.70;;;46.43;;
25111;SDS011;13092;51.996;4.458;2024-01-25T08:23:47;72.53;;;45.80;;
25111;SDS011;13092;51.996;4.458;2024-01-25T08:26:16;72.83;;;45.73;;
25111;SDS011;13092;51.996;4.458;2024-01-25T08:28:45;72.90;;;43.33;;
25111;SDS011;13092;51.996;4.458;2024-01-25T08:31:15;72.50;;;45.50;;
25111;SDS011;13092;51.996;4.458;2024-01-25T08:33:44;78.60;;;46.80;;
25111;SDS011;13092;51.996;4.458;2024-01-25T08:36:18;67.83;;;45.77;;
25111;SDS011;13092;51.996;4.458;2024-01-25T08:38:46;68.00;;;44.70;;
25111;SDS011;13092;51.996;4.458;2024-01-25T08:41:14;69.80;;;45.43;;
25111;SDS011;13092;51.996;4.458;2024-01-25T08:43:43;61.40;;;43.13;;
25111;SDS011;13092;51.996;4.458;2024-01-25T08:46:12;72.20;;;44.57;;
25111;SDS011;13092;51.996;4.458;2024-01-25T08:48:41;70.33;;;44.23;;
25111;SDS011;13092;51.996;4.458;2024-01-25T08:51:10;72.40;;;44.53;;
25111;SDS011;13092;51.996;4.458;2024-01-25T08:53:40;70.27;;;46.43;;
25111;SDS011;13092;51.996;4.458;2024-01-25T08:56:08;72.03;;;47.37;;
25111;SDS011;13092;51.996;4.458;2024-01-25T08:58:37;78.43;;;45.87;;
25111;SDS011;13092;51.996;4.458;2024-01-25T09:01:06;66.50;;;46.00;;
25111;SDS011;13092;51.996;4.458;2024-01-25T09:03:34;68.33;;;46.60;;
25111;SDS011;13092;51.996;4.458;2024-01-25T09:06:04;66.43;;;47.10;;
25111;SDS011;13092;51.996;4.458;2024-01-25T09:08:33;82.23;;;47.17;;
25111;SDS011;13092;51.996;4.458;2024-01-25T09:11:03;70.13;;;47.77;;
25111;SDS011;13092;51.996;4.458;2024-01-25T09:13:32;62.93;;;47.07;;
25111;SDS011;13092;51.996;4.458;2024-01-25T09:16:11;71.53;;;44.77;;
25111;SDS011;13092;51.996;4.458;2024-01-25T09:18:40;64.97;;;47.23;;
25111;SDS011;13092;51.996;4.458;2024-01-25T09:21:12;76.63;;;46.80;;
25111;SDS011;13092;51.996;4.458;2024-01-25T09:23:40;66.80;;;44.83;;
25111;SDS011;13092;51.996;4.458;2024-01-25T09:26:10;65.97;;;43.93;;
25111;SDS011;13092;51.996;4.458;2024-01-25T09:28:39;76.00;;;45.05;;
25111;SDS011;13092;51.996;4.458;2024-01-25T09:31:07;65.67;;;45.23;;
25111;SDS011;13092;51.996;4.458;2024-01-25T09:33:36;66.50;;;44.53;;
25111;SDS011;13092;51.996;4.458;2024-01-25T09:36:05;71.55;;;44.63;;
25111;SDS011;13092;51.996;4.458;2024-01-25T09:38:34;74.37;;;48.60;;
25111;SDS011;13092;51.996;4.458;2024-01-25T09:41:03;70.57;;;45.67;;
25111;SDS011;13092;51.996;4.458;2024-01-25T09:43:33;70.07;;;47.03;;
25111;SDS011;13092;51.996;4.458;2024-01-25T09:46:02;69.70;;;47.53;;
25111;SDS011;13092;51.996;4.458;2024-01-25T09:48:30;67.55;;;47.45;;
25111;SDS011;13092;51.996;4.458;2024-01-25T09:51:00;64.13;;;45.53;;
25111;SDS011;13092;51.996;4.458;2024-01-25T09:53:29;67.05;;;44.85;;
25111;SDS011;13092;51.996;4.458;2024-01-25T09:56:03;77.60;;;47.00;;
25111;SDS011;13092;51.996;4.458;2024-01-25T09:58:37;66.40;;;45.60;;
25111;SDS011;13092;51.996;4.458;2024-01-25T10:01:10;67.90;;;45.93;;
25111;SDS011;13092;51.996;4.458;2024-01-25T10:03:41;68.97;;;45.20;;
25111;SDS011;13092;51.996;4.458;2024-01-25T10:06:11;80.77;;;46.70;;
25111;SDS011;13092;51.996;4.458;2024-01-25T10:08:40;63.57;;;45.33;;
25111;SDS011;13092;51.996;4.458;2024-01-25T10:11:12;61.47;;;44.78;;
25111;SDS011;13092;51.996;4.458;2024-01-25T10:13:42;67.60;;;45.67;;
25111;SDS011;13092;51.996;4.458;2024-01-25T10:16:11;68.05;;;47.20;;
25111;SDS011;13092;51.996;4.458;2024-01-25T10:18:41;80.35;;;45.22;;
25111;SDS011;13092;51.996;4.458;2024-01-25T10:21:13;68.85;;;43.90;;
25111;SDS011;13092;51.996;4.458;2024-01-25T10:23:43;68.35;;;45.88;;
25111;SDS011;13092;51.996;4.458;2024-01-25T10:26:13;69.07;;;45.58;;
25111;SDS011;13092;51.996;4.458;2024-01-25T10:28:49;66.95;;;47.92;;
25111;SDS011;13092;51.996;4.458;2024-01-25T10:31:28;75.13;;;47.13;;
25111;SDS011;13092;51.996;4.458;2024-01-25T10:33:57;66.30;;;46.67;;
25111;SDS011;13092;51.996;4.458;2024-01-25T10:36:28;70.18;;;45.95;;
25111;SDS011;13092;51.996;4.458;2024-01-25T10:39:01;76.13;;;46.28;;
25111;SDS011;13092;51.996;4.458;2024-01-25T10:41:39;64.75;;;45.53;;
25111;SDS011;13092;51.996;4.458;2024-01-25T10:46:52;67.07;;;46.55;;
25111;SDS011;13092;51.996;4.458;2024-01-25T10:49:21;71.00;;;44.55;;
25111;SDS011;13092;51.996;4.458;2024-01-25T10:51:50;71.38;;;45.03;;
25111;SDS011;13092;51.996;4.458;2024-01-25T10:54:19;69.93;;;46.72;;
25111;SDS011;13092;51.996;4.458;2024-01-25T10:56:48;68.07;;;45.00;;
25111;SDS011;13092;51.996;4.458;2024-01-25T10:59:17;76.25;;;45.15;;
25111;SDS011;13092;51.996;4.458;2024-01-25T11:01:45;70.88;;;43.90;;
25111;SDS011;13092;51.996;4.458;2024-01-25T11:04:16;70.35;;;45.60;;
25111;SDS011;13092;51.996;4.458;2024-01-25T11:06:46;70.93;;;43.17;;
25111;SDS011;13092;51.996;4.458;2024-01-25T11:09:16;69.45;;;46.10;;
25111;SDS011;13092;51.996;4.458;2024-01-25T11:11:46;63.83;;;44.47;;
25111;SDS011;13092;51.996;4.458;2024-01-25T11:14:15;69.72;;;45.40;;
25111;SDS011;13092;51.996;4.458;2024-01-25T11:16:44;71.18;;;44.45;;
25111;SDS011;13092;51.996;4.458;2024-01-25T11:19:18;70.82;;;45.45;;
25111;SDS011;13092;51.996;4.458;2024-01-25T11:21:48;71.28;;;45.10;;
25111;SDS011;13092;51.996;4.458;2024-01-25T11:24:19;78.63;;;44.53;;
25111;SDS011;13092;51.996;4.458;2024-01-25T11:26:49;75.82;;;45.75;;
25111;SDS011;13092;51.996;4.458;2024-01-25T11:29:18;69.80;;;46.25;;
25111;SDS011;13092;51.996;4.458;2024-01-25T11:31:49;77.63;;;47.58;;
25111;SDS011;13092;51.996;4.458;2024-01-25T11:34:20;72.30;;;46.13;;
25111;SDS011;13092;51.996;4.458;2024-01-25T11:36:49;69.15;;;46.85;;
25111;SDS011;13092;51.996;4.458;2024-01-25T11:39:17;69.78;;;48.15;;
25111;SDS011;13092;51.996;4.458;2024-01-25T11:41:45;73.95;;;45.25;;
25111;SDS011;13092;51.996;4.458;2024-01-25T11:44:15;65.93;;;45.58;;
25111;SDS011;13092;51.996;4.458;2024-01-25T11:46:45;77.20;;;47.75;;
25111;SDS011;13092;51.996;4.458;2024-01-25T11:49:14;72.25;;;49.25;;
25111;SDS011;13092;51.996;4.458;2024-01-25T11:51:44;79.35;;;46.00;;
25111;SDS011;13092;51.996;4.458;2024-01-25T11:54:12;67.40;;;46.35;;
25111;SDS011;13092;51.996;4.458;2024-01-25T11:56:41;65.97;;;47.38;;
25111;SDS011;13092;51.996;4.458;2024-01-25T11:59:10;68.68;;;45.38;;
25111;SDS011;13092;51.996;4.458;2024-01-25T12:01:39;88.22;;;47.30;;
25111;SDS011;13092;51.996;4.458;2024-01-25T12:04:09;75.10;;;45.92;;
25111;SDS011;13092;51.996;4.458;2024-01-25T12:06:38;71.00;;;45.40;;
25111;SDS011;13092;51.996;4.458;2024-01-25T12:09:09;71.50;;;46.25;;
25111;SDS011;13092;51.996;4.458;2024-01-25T12:11:40;71.78;;;46.50;;
25111;SDS011;13092;51.996;4.458;2024-01-25T12:14:09;65.32;;;46.17;;
25111;SDS011;13092;51.996;4.458;2024-01-25T12:16:38;61.97;;;47.47;;
25111;SDS011;13092;51.996;4.458;2024-01-25T12:19:10;63.72;;;47.90;;
25111;SDS011;13092;51.996;4.458;2024-01-25T12:21:38;68.32;;;47.33;;
25111;SDS011;13092;51.996;4.458;2024-01-25T12:24:09;60.95;;;45.88;;
25111;SDS011;13092;51.996;4.458;2024-01-25T12:26:37;71.72;;;47.95;;
25111;SDS011;13092;51.996;4.458;2024-01-25T12:29:06;72.18;;;49.08;;
25111;SDS011;13092;51.996;4.458;2024-01-25T12:31:37;72.35;;;48.13;;
25111;SDS011;13092;51.996;4.458;2024-01-25T12:34:11;61.83;;;47.55;;
25111;SDS011;13092;51.996;4.458;2024-01-25T12:36:41;68.13;;;46.53;;
25111;SDS011;13092;51.996;4.458;2024-01-25T12:39:11;72.95;;;46.97;;
25111;SDS011;13092;51.996;4.458;2024-01-25T12:41:45;65.43;;;46.05;;
25111;SDS011;13092;51.996;4.458;2024-01-25T12:44:14;62.97;;;43.78;;
25111;SDS011;13092;51.996;4.458;2024-01-25T12:46:43;67.20;;;46.28;;
25111;SDS011;13092;51.996;4.458;2024-01-25T12:49:11;71.75;;;44.22;;
25111;SDS011;13092;51.996;4.458;2024-01-25T12:51:40;78.10;;;46.55;;
25111;SDS011;13092;51.996;4.458;2024-01-25T12:54:22;71.85;;;47.08;;
25111;SDS011;13092;51.996;4.458;2024-01-25T12:56:50;70.57;;;46.97;;
25111;SDS011;13092;51.996;4.458;2024-01-25T12:59:19;67.70;;;45.22;;
25111;SDS011;13092;51.996;4.458;2024-01-25T13:01:47;66.85;;;45.85;;
25111;SDS011;13092;51.996;4.458;2024-01-25T13:04:16;69.35;;;45.88;;
25111;SDS011;13092;51.996;4.458;2024-01-25T13:06:47;75.57;;;45.67;;
25111;SDS011;13092;51.996;4.458;2024-01-25T13:09:18;62.85;;;47.10;;
25111;SDS011;13092;51.996;4.458;2024-01-25T13:11:46;71.30;;;46.08;;
25111;SDS011;13092;51.996;4.458;2024-01-25T13:14:15;72.32;;;45.85;;
25111;SDS011;13092;51.996;4.458;2024-01-25T13:16:44;71.82;;;47.50;;
25111;SDS011;13092;51.996;4.458;2024-01-25T13:19:12;74.63;;;45.40;;
25111;SDS011;13092;51.996;4.458;2024-01-25T13:21:41;64.13;;;45.05;;
25111;SDS011;13092;51.996;4.458;2024-01-25T13:24:09;66.28;;;46.80;;
25111;SDS011;13092;51.996;4.458;2024-01-25T13:26:39;69.22;;;48.35;;
25111;SDS011;13092;51.996;4.458;2024-01-25T13:29:07;69.72;;;47.25;;
25111;SDS011;13092;51.996;4.458;2024-01-25T13:31:39;72.40;;;47.45;;
25111;SDS011;13092;51.996;4.458;2024-01-25T13:34:16;66.80;;;46.83;;
25111;SDS011;13092;51.996;4.458;2024-01-25T13:36:45;78.45;;;50.53;;
25111;SDS011;13092;51.996;4.458;2024-01-25T13:39:14;67.50;;;47.95;;
25111;SDS011;13092;51.996;4.458;2024-01-25T13:41:43;66.22;;;47.28;;
25111;SDS011;13092;51.996;4.458;2024-01-25T13:44:13;71.22;;;49.25;;
25111;SDS011;13092;51.996;4.458;2024-01-25T13:46:43;73.57;;;47.78;;
25111;SDS011;13092;51.996;4.458;2024-01-25T13:49:11;69.28;;;47.78;;
25111;SDS011;13092;51.996;4.458;2024-01-25T13:51:43;67.00;;;45.53;;
25111;SDS011;13092;51.996;4.458;2024-01-25T13:54:35;67.93;;;47.25;;
25111;SDS011;13092;51.996;4.458;2024-01-25T13:57:04;72.85;;;47.83;;
25111;SDS011;13092;51.996;4.458;2024-01-25T13:59:33;64.72;;;47.47;;
25111;SDS011;13092;51.996;4.458;2024-01-25T14:02:06;59.33;;;47.05;;
25111;SDS011;13092;51.996;4.458;2024-01-25T14:04:34;67.60;;;48.25;;
25111;SDS011;13092;51.996;4.458;2024-01-25T14:07:03;79.00;;;50.35;;
25111;SDS011;13092;51.996;4.458;2024-01-25T14:09:32;72.13;;;49.85;;
25111;SDS011;13092;51.996;4.458;2024-01-25T14:12:01;73.78;;;50.20;;
25111;SDS011;13092;51.996;4.458;2024-01-25T14:14:31;76.68;;;50.40;;
25111;SDS011;13092;51.996;4.458;2024-01-25T14:17:00;72.43;;;52.78;;
25111;SDS011;13092;51.996;4.458;2024-01-25T14:19:28;80.50;;;54.50;;
25111;SDS011;13092;51.996;4.458;2024-01-25T14:21:57;81.50;;;55.63;;
25111;SDS011;13092;51.996;4.458;2024-01-25T14:24:47;78.18;;;54.90;;
25111;SDS011;13092;51.996;4.458;2024-01-25T14:27:16;93.15;;;58.40;;
25111;SDS011;13092;51.996;4.458;2024-01-25T14:29:46;89.38;;;59.03;;
25111;SDS011;13092;51.996;4.458;2024-01-25T14:32:17;87.45;;;58.10;;
25111;SDS011;13092;51.996;4.458;2024-01-25T14:34:48;98.47;;;61.03;;
25111;SDS011;13092;51.996;4.458;2024-01-25T14:37:17;88.07;;;60.58;;
25111;SDS011;13092;51.996;4.458;2024-01-25T14:39:46;102.75;;;60.58;;
25111;SDS011;13092;51.996;4.458;2024-01-25T14:42:34;94.80;;;60.95;;
25111;SDS011;13092;51.996;4.458;2024-01-25T14:45:06;94.95;;;61.28;;
25111;SDS011;13092;51.996;4.458;2024-01-25T14:47:37;90.90;;;62.15;;
25111;SDS011;13092;51.996;4.458;2024-01-25T14:50:06;90.85;;;61.08;;
25111;SDS011;13092;51.996;4.458;2024-01-25T14:52:34;89.43;;;62.40;;
25111;SDS011;13092;51.996;4.458;2024-01-25T14:55:03;87.25;;;58.15;;
25111;SDS011;13092;51.996;4.458;2024-01-25T14:57:35;93.03;;;60.10;;
25111;SDS011;13092;51.996;4.458;2024-01-25T15:00:03;91.80;;;59.97;;
25111;SDS011;13092;51.996;4.458;2024-01-25T15:02:37;89.53;;;59.45;;
25111;SDS011;13092;51.996;4.458;2024-01-25T15:05:08;85.95;;;57.28;;
25111;SDS011;13092;51.996;4.458;2024-01-25T15:07:38;81.85;;;56.95;;
25111;SDS011;13092;51.996;4.458;2024-01-25T15:10:06;86.55;;;56.17;;
25111;SDS011;13092;51.996;4.458;2024-01-25T15:12:35;89.28;;;58.10;;
25111;SDS011;13092;51.996;4.458;2024-01-25T15:15:07;84.13;;;58.25;;
25111;SDS011;13092;51.996;4.458;2024-01-25T15:17:38;90.25;;;58.75;;
25111;SDS011;13092;51.996;4.458;2024-01-25T15:20:08;89.63;;;57.55;;
25111;SDS011;13092;51.996;4.458;2024-01-25T15:22:36;89.72;;;57.47;;
25111;SDS011;13092;51.996;4.458;2024-01-25T15:25:08;91.05;;;59.15;;
25111;SDS011;13092;51.996;4.458;2024-01-25T15:27:37;90.05;;;56.92;;
25111;SDS011;13092;51.996;4.458;2024-01-25T15:30:07;80.65;;;55.92;;
25111;SDS011;13092;51.996;4.458;2024-01-25T15:32:37;79.97;;;56.53;;
25111;SDS011;13092;51.996;4.458;2024-01-25T15:35:06;84.75;;;57.05;;
25111;SDS011;13092;51.996;4.458;2024-01-25T15:37:35;84.03;;;55.63;;
25111;SDS011;13092;51.996;4.458;2024-01-25T15:40:04;78.32;;;55.30;;
25111;SDS011;13092;51.996;4.458;2024-01-25T15:42:38;77.00;;;54.13;;
25111;SDS011;13092;51.996;4.458;2024-01-25T15:45:09;82.22;;;54.15;;
25111;SDS011;13092;51.996;4.458;2024-01-25T15:47:37;78.50;;;54.75;;
25111;SDS011;13092;51.996;4.458;2024-01-25T15:50:08;77.65;;;54.22;;
25111;SDS011;13092;51.996;4.458;2024-01-25T15:52:36;78.68;;;53.85;;
25111;SDS011;13092;51.996;4.458;2024-01-25T15:55:08;73.75;;;53.70;;
25111;SDS011;13092;51.996;4.458;2024-01-25T15:57:36;79.53;;;55.78;;
25111;SDS011;13092;51.996;4.458;2024-01-25T16:00:06;76.95;;;54.85;;
25111;SDS011;13092;51.996;4.458;2024-01-25T16:02:36;80.05;;;55.08;;
25111;SDS011;13092;51.996;4.458;2024-01-25T16:05:04;76.43;;;55.00;;
25111;SDS011;13092;51.996;4.458;2024-01-25T16:07:33;75.57;;;53.03;;
25111;SDS011;13092;51.996;4.458;2024-01-25T16:10:02;83.72;;;53.45;;
25111;SDS011;13092;51.996;4.458;2024-01-25T16:12:31;82.20;;;53.10;;
25111;SDS011;13092;51.996;4.458;2024-01-25T16:14:59;80.57;;;53.95;;
25111;SDS011;13092;51.996;4.458;2024-01-25T16:17:29;80.60;;;53.08;;
25111;SDS011;13092;51.996;4.458;2024-01-25T16:20:01;73.18;;;51.90;;
25111;SDS011;13092;51.996;4.458;2024-01-25T16:22:30;79.90;;;52.25;;
25111;SDS011;13092;51.996;4.458;2024-01-25T16:25:02;68.35;;;51.17;;
25111;SDS011;13092;51.996;4.458;2024-01-25T16:27:34;80.20;;;52.22;;
25111;SDS011;13092;51.996;4.458;2024-01-25T16:30:03;81.35;;;53.17;;
25111;SDS011;13092;51.996;4.458;2024-01-25T16:32:32;77.57;;;53.38;;
25111;SDS011;13092;51.996;4.458;2024-01-25T16:35:02;78.43;;;52.22;;
25111;SDS011;13092;51.996;4.458;2024-01-25T16:37:31;79.10;;;52.95;;
25111;SDS011;13092;51.996;4.458;2024-01-25T16:39:59;77.85;;;51.10;;
25111;SDS011;13092;51.996;4.458;2024-01-25T16:42:28;75.07;;;50.65;;